Niagara Falls International Airport
KIAG : now visible

Airfield :











YOU CAN JOIN US ON...

 
LOGIN :

Register | Disclaimer

   EN    FR    IT 

 









Legend :    VFR   Marginal VFR   IFR   Intensive IFR   Very Intensive IFR
Visi :
Ceiling :
>= 8 km
>= 3000ft
5 to 8 km
1000 to 3000 ft
1500m to 5 km
500 to 1000 ft
800 to 1500m
200 to 500 ft
< 800m
< 200 ft
Symbols :   Thunderstorms  Fog  Heavy snow  Heavy precipitations  Wind > 20 kt






- Airport Elevation : 589 ft
- IATA code : IAG


KIAG - Niagara Falls International

CURRENT METAR :
  • 222353Z 27014KT 10SM SCT035 BKN047 OVC055 M04/M09 A2994 RMK AO2 SNB08E24 SLP153 P0000 60000 T10441094 11017 21044 51027

EXPIRED METARs :
  • 222253Z 27017G23KT 10SM FEW034 SCT047 OVC060 M04/M10 A2991 RMK AO2 PK WND 27026/2157 SLP145 T10391100
  • 222153Z 27020G26KT 10SM SCT040 OVC047 M03/M10 A2989 RMK AO2 PK WND 28026/2145 SLP136 T10331100

TAF KIAG
Valid from the 23 at 00:00 until the 24 at 00:00 UTC


222321Z 2300/2324 28015KT P6SM BKN035 OVC060
FM230100 30013G20KT P6SM OVC035
FM230700 30011G20KT P6SM BKN030
FM231300 30012G19KT P6SM BKN050
FM232100 30012G18KT P6SM SCT045
KZOB FIR / North America



MET'MAP, your aeronautical weather chart ! - Copyright ORBIFLY December 2007 - Disclaimer

ORBIFLY MET'MAP TEAM :

Programming & Development : Alexandra Zaïnal
Concept & original design : Baudouin d'Aumeries
Assistance for programming : Marc-Olivier Méhu
Technical & hardware support : Manuel Goepfert

Contact : metmap@orbifly.com




SOURCES & CREDITS :

   NOAA       Earth
Advisory